sensor_id;sensor_type;location;lat;lon;timestamp;temperature;humidity
44117;DHT22;29781;49.480;8.512;2023-07-31T00:01:59;20.90;99.90
44117;DHT22;29781;49.480;8.512;2023-07-31T00:04:24;20.90;99.90
44117;DHT22;29781;49.480;8.512;2023-07-31T00:06:50;20.80;99.90
44117;DHT22;29781;49.480;8.512;2023-07-31T00:09:15;20.70;99.90
44117;DHT22;29781;49.480;8.512;2023-07-31T00:11:41;20.80;99.90
44117;DHT22;29781;49.480;8.512;2023-07-31T00:14:06;20.80;99.90
44117;DHT22;29781;49.480;8.512;2023-07-31T00:16:32;20.80;99.90
44117;DHT22;29781;49.480;8.512;2023-07-31T00:18:57;20.70;99.90
44117;DHT22;29781;49.480;8.512;2023-07-31T00:21:23;20.80;99.90
44117;DHT22;29781;49.480;8.512;2023-07-31T00:23:48;20.70;99.90
44117;DHT22;29781;49.480;8.512;2023-07-31T00:26:14;20.70;99.90
44117;DHT22;29781;49.480;8.512;2023-07-31T00:28:39;20.60;99.90
44117;DHT22;29781;49.480;8.512;2023-07-31T00:31:05;20.60;99.90
44117;DHT22;29781;49.480;8.512;2023-07-31T00:33:31;20.60;99.90
44117;DHT22;29781;49.480;8.512;2023-07-31T00:35:57;20.50;99.90
44117;DHT22;29781;49.480;8.512;2023-07-31T00:38:22;20.50;99.90
44117;DHT22;29781;49.480;8.512;2023-07-31T00:40:48;20.50;99.90
44117;DHT22;29781;49.480;8.512;2023-07-31T00:43:13;20.50;99.90
44117;DHT22;29781;49.480;8.512;2023-07-31T00:45:39;20.50;99.90
44117;DHT22;29781;49.480;8.512;2023-07-31T00:48:05;20.40;99.90
44117;DHT22;29781;49.480;8.512;2023-07-31T00:50:35;20.50;99.90
44117;DHT22;29781;49.480;8.512;2023-07-31T00:53:01;20.40;99.90
44117;DHT22;29781;49.480;8.512;2023-07-31T00:55:26;20.30;99.90
44117;DHT22;29781;49.480;8.512;2023-07-31T00:57:52;20.30;99.90
44117;DHT22;29781;49.480;8.512;2023-07-31T01:00:21;20.30;99.90
44117;DHT22;29781;49.480;8.512;2023-07-31T01:02:48;20.40;99.90
44117;DHT22;29781;49.480;8.512;2023-07-31T01:05:14;20.30;99.90
44117;DHT22;29781;49.480;8.512;2023-07-31T01:07:55;20.30;99.90
44117;DHT22;29781;49.480;8.512;2023-07-31T01:10:24;20.30;99.90
44117;DHT22;29781;49.480;8.512;2023-07-31T01:12:53;20.40;99.90
44117;DHT22;29781;49.480;8.512;2023-07-31T01:15:19;20.40;99.90
44117;DHT22;29781;49.480;8.512;2023-07-31T01:17:44;20.40;99.90
44117;DHT22;29781;49.480;8.512;2023-07-31T01:20:13;20.30;99.90
44117;DHT22;29781;49.480;8.512;2023-07-31T01:28:23;20.30;99.90
44117;DHT22;29781;49.480;8.512;2023-07-31T01:30:50;20.20;99.90
44117;DHT22;29781;49.480;8.512;2023-07-31T01:33:16;20.10;99.90
44117;DHT22;29781;49.480;8.512;2023-07-31T01:35:44;20.10;99.90
44117;DHT22;29781;49.480;8.512;2023-07-31T01:38:10;19.90;99.90
44117;DHT22;29781;49.480;8.512;2023-07-31T01:40:35;20.00;99.90
44117;DHT22;29781;49.480;8.512;2023-07-31T01:43:01;19.90;99.90
44117;DHT22;29781;49.480;8.512;2023-07-31T01:45:26;19.90;99.90
44117;DHT22;29781;49.480;8.512;2023-07-31T01:47:52;19.90;99.90
44117;DHT22;29781;49.480;8.512;2023-07-31T01:50:17;19.90;99.90
44117;DHT22;29781;49.480;8.512;2023-07-31T01:52:43;19.90;99.90
44117;DHT22;29781;49.480;8.512;2023-07-31T01:55:08;19.80;99.90
44117;DHT22;29781;49.480;8.512;2023-07-31T01:57:36;19.80;99.90
44117;DHT22;29781;49.480;8.512;2023-07-31T02:00:01;19.80;99.90
44117;DHT22;29781;49.480;8.512;2023-07-31T02:02:27;19.70;99.90
44117;DHT22;29781;49.480;8.512;2023-07-31T02:04:52;19.80;99.90
44117;DHT22;29781;49.480;8.512;2023-07-31T02:07:18;19.80;99.90
44117;DHT22;29781;49.480;8.512;2023-07-31T02:09:43;19.70;99.90
44117;DHT22;29781;49.480;8.512;2023-07-31T02:12:09;19.80;99.90
44117;DHT22;29781;49.480;8.512;2023-07-31T02:14:34;19.70;99.90
44117;DHT22;29781;49.480;8.512;2023-07-31T02:17:00;19.70;99.90
44117;DHT22;29781;49.480;8.512;2023-07-31T02:19:26;19.70;99.90
44117;DHT22;29781;49.480;8.512;2023-07-31T02:21:51;19.70;99.90
44117;DHT22;29781;49.480;8.512;2023-07-31T02:24:17;19.70;99.90
44117;DHT22;29781;49.480;8.512;2023-07-31T02:26:42;19.60;99.90
44117;DHT22;29781;49.480;8.512;2023-07-31T02:29:08;19.60;99.90
44117;DHT22;29781;49.480;8.512;2023-07-31T02:31:34;19.60;99.90
44117;DHT22;29781;49.480;8.512;2023-07-31T02:33:59;19.50;99.90
44117;DHT22;29781;49.480;8.512;2023-07-31T02:36:25;19.40;99.90
44117;DHT22;29781;49.480;8.512;2023-07-31T02:38:51;19.30;99.90
44117;DHT22;29781;49.480;8.512;2023-07-31T02:41:16;19.40;99.90
44117;DHT22;29781;49.480;8.512;2023-07-31T02:43:41;19.50;99.90
44117;DHT22;29781;49.480;8.512;2023-07-31T02:46:07;19.50;99.90
44117;DHT22;29781;49.480;8.512;2023-07-31T02:48:33;19.40;99.90
44117;DHT22;29781;49.480;8.512;2023-07-31T02:50:58;19.40;99.90
44117;DHT22;29781;49.480;8.512;2023-07-31T02:53:24;19.40;99.90
44117;DHT22;29781;49.480;8.512;2023-07-31T02:55:49;19.40;99.90
44117;DHT22;29781;49.480;8.512;2023-07-31T02:58:15;19.50;99.90
44117;DHT22;29781;49.480;8.512;2023-07-31T03:00:44;19.50;99.90
44117;DHT22;29781;49.480;8.512;2023-07-31T03:03:10;19.50;99.90
44117;DHT22;29781;49.480;8.512;2023-07-31T03:05:35;19.50;99.90
44117;DHT22;29781;49.480;8.512;2023-07-31T03:08:01;19.50;99.90
44117;DHT22;29781;49.480;8.512;2023-07-31T03:10:27;19.40;99.90
44117;DHT22;29781;49.480;8.512;2023-07-31T03:12:52;19.40;99.90
44117;DHT22;29781;49.480;8.512;2023-07-31T03:15:18;19.40;99.90
44117;DHT22;29781;49.480;8.512;2023-07-31T03:17:43;19.30;99.90
44117;DHT22;29781;49.480;8.512;2023-07-31T03:20:09;19.20;99.90
44117;DHT22;29781;49.480;8.512;2023-07-31T03:22:35;19.20;99.90
44117;DHT22;29781;49.480;8.512;2023-07-31T03:25:02;19.20;99.90
44117;DHT22;29781;49.480;8.512;2023-07-31T03:27:27;19.20;99.90
44117;DHT22;29781;49.480;8.512;2023-07-31T03:29:53;19.20;99.90
44117;DHT22;29781;49.480;8.512;2023-07-31T03:32:19;19.10;99.90
44117;DHT22;29781;49.480;8.512;2023-07-31T03:34:44;19.20;99.90
44117;DHT22;29781;49.480;8.512;2023-07-31T03:37:10;19.10;99.90
44117;DHT22;29781;49.480;8.512;2023-07-31T03:39:35;19.10;99.90
44117;DHT22;29781;49.480;8.512;2023-07-31T03:42:01;19.00;99.90
44117;DHT22;29781;49.480;8.512;2023-07-31T03:44:26;18.90;99.90
44117;DHT22;29781;49.480;8.512;2023-07-31T03:46:52;19.00;99.90
44117;DHT22;29781;49.480;8.512;2023-07-31T03:49:17;19.00;99.90
44117;DHT22;29781;49.480;8.512;2023-07-31T03:51:43;19.00;99.90
44117;DHT22;29781;49.480;8.512;2023-07-31T03:54:08;19.00;99.90
44117;DHT22;29781;49.480;8.512;2023-07-31T03:56:34;19.10;99.90
44117;DHT22;29781;49.480;8.512;2023-07-31T03:58:59;19.10;99.90
44117;DHT22;29781;49.480;8.512;2023-07-31T04:01:26;19.10;99.90
44117;DHT22;29781;49.480;8.512;2023-07-31T04:03:51;19.10;99.90
44117;DHT22;29781;49.480;8.512;2023-07-31T04:06:17;19.10;99.90
44117;DHT22;29781;49.480;8.512;2023-07-31T04:08:44;19.00;99.90
44117;DHT22;29781;49.480;8.512;2023-07-31T04:11:10;19.00;99.90
44117;DHT22;29781;49.480;8.512;2023-07-31T04:13:36;19.00;99.90
44117;DHT22;29781;49.480;8.512;2023-07-31T04:16:02;19.00;99.90
44117;DHT22;29781;49.480;8.512;2023-07-31T04:18:27;19.00;99.90
44117;DHT22;29781;49.480;8.512;2023-07-31T04:20:53;19.00;99.90
44117;DHT22;29781;49.480;8.512;2023-07-31T04:23:18;19.00;99.90
44117;DHT22;29781;49.480;8.512;2023-07-31T04:25:44;19.10;99.90
44117;DHT22;29781;49.480;8.512;2023-07-31T04:28:10;19.00;99.90
44117;DHT22;29781;49.480;8.512;2023-07-31T04:30:35;19.00;99.90
44117;DHT22;29781;49.480;8.512;2023-07-31T04:33:01;19.00;99.90
44117;DHT22;29781;49.480;8.512;2023-07-31T04:35:27;19.00;99.90
44117;DHT22;29781;49.480;8.512;2023-07-31T04:37:52;18.90;99.90
44117;DHT22;29781;49.480;8.512;2023-07-31T04:40:18;18.90;99.90
44117;DHT22;29781;49.480;8.512;2023-07-31T04:42:43;18.90;99.90
44117;DHT22;29781;49.480;8.512;2023-07-31T04:45:09;18.90;99.90
44117;DHT22;29781;49.480;8.512;2023-07-31T04:47:35;18.90;99.90
44117;DHT22;29781;49.480;8.512;2023-07-31T04:50:00;18.80;99.90
44117;DHT22;29781;49.480;8.512;2023-07-31T04:52:26;18.90;99.90
44117;DHT22;29781;49.480;8.512;2023-07-31T04:54:51;18.90;99.90
44117;DHT22;29781;49.480;8.512;2023-07-31T04:57:17;19.00;99.90
44117;DHT22;29781;49.480;8.512;2023-07-31T04:59:42;19.00;99.90
44117;DHT22;29781;49.480;8.512;2023-07-31T05:02:08;19.00;99.90
44117;DHT22;29781;49.480;8.512;2023-07-31T05:04:34;19.00;99.90
44117;DHT22;29781;49.480;8.512;2023-07-31T05:06:59;19.00;99.90
44117;DHT22;29781;49.480;8.512;2023-07-31T05:09:25;19.00;99.90
44117;DHT22;29781;49.480;8.512;2023-07-31T05:11:50;19.00;99.90
44117;DHT22;29781;49.480;8.512;2023-07-31T05:14:16;18.90;99.90
44117;DHT22;29781;49.480;8.512;2023-07-31T05:16:41;19.00;99.90
44117;DHT22;29781;49.480;8.512;2023-07-31T05:19:07;18.90;99.90
44117;DHT22;29781;49.480;8.512;2023-07-31T05:21:32;19.00;99.90
44117;DHT22;29781;49.480;8.512;2023-07-31T05:23:58;19.00;99.90
44117;DHT22;29781;49.480;8.512;2023-07-31T05:26:24;19.00;99.90
44117;DHT22;29781;49.480;8.512;2023-07-31T05:28:49;19.00;99.90
44117;DHT22;29781;49.480;8.512;2023-07-31T05:31:15;18.90;99.90
44117;DHT22;29781;49.480;8.512;2023-07-31T05:33:40;18.90;99.90
44117;DHT22;29781;49.480;8.512;2023-07-31T05:36:06;18.90;99.90
44117;DHT22;29781;49.480;8.512;2023-07-31T05:38:31;18.90;99.90
44117;DHT22;29781;49.480;8.512;2023-07-31T05:40:57;18.90;99.90
44117;DHT22;29781;49.480;8.512;2023-07-31T05:43:22;18.90;99.90
44117;DHT22;29781;49.480;8.512;2023-07-31T05:45:48;18.90;99.90
44117;DHT22;29781;49.480;8.512;2023-07-31T05:48:13;19.00;99.90
44117;DHT22;29781;49.480;8.512;2023-07-31T05:50:39;19.00;99.90
44117;DHT22;29781;49.480;8.512;2023-07-31T05:53:05;19.00;99.90
44117;DHT22;29781;49.480;8.512;2023-07-31T05:55:31;19.10;99.90
44117;DHT22;29781;49.480;8.512;2023-07-31T05:57:57;19.10;99.90
44117;DHT22;29781;49.480;8.512;2023-07-31T06:00:22;19.10;99.90
44117;DHT22;29781;49.480;8.512;2023-07-31T06:02:48;19.10;99.90
44117;DHT22;29781;49.480;8.512;2023-07-31T06:05:14;19.10;99.90
44117;DHT22;29781;49.480;8.512;2023-07-31T06:07:39;19.20;99.90
44117;DHT22;29781;49.480;8.512;2023-07-31T06:10:05;19.10;99.90
44117;DHT22;29781;49.480;8.512;2023-07-31T06:12:32;19.10;99.90
44117;DHT22;29781;49.480;8.512;2023-07-31T06:14:57;19.10;99.90
44117;DHT22;29781;49.480;8.512;2023-07-31T06:17:23;19.10;99.90
44117;DHT22;29781;49.480;8.512;2023-07-31T06:19:49;19.10;99.90
44117;DHT22;29781;49.480;8.512;2023-07-31T06:22:15;19.20;99.90
44117;DHT22;29781;49.480;8.512;2023-07-31T06:24:40;19.20;99.90
44117;DHT22;29781;49.480;8.512;2023-07-31T06:27:06;19.20;99.90
44117;DHT22;29781;49.480;8.512;2023-07-31T06:29:32;19.30;99.90
44117;DHT22;29781;49.480;8.512;2023-07-31T06:31:58;19.30;99.90
44117;DHT22;29781;49.480;8.512;2023-07-31T06:34:23;19.30;99.90
44117;DHT22;29781;49.480;8.512;2023-07-31T06:36:49;19.30;99.90
44117;DHT22;29781;49.480;8.512;2023-07-31T06:39:14;19.30;99.90
44117;DHT22;29781;49.480;8.512;2023-07-31T06:41:41;19.30;99.90
44117;DHT22;29781;49.480;8.512;2023-07-31T06:44:08;19.30;99.90
44117;DHT22;29781;49.480;8.512;2023-07-31T06:46:33;19.30;99.90
44117;DHT22;29781;49.480;8.512;2023-07-31T06:48:59;19.40;99.90
44117;DHT22;29781;49.480;8.512;2023-07-31T06:51:24;19.40;99.90
44117;DHT22;29781;49.480;8.512;2023-07-31T06:53:50;19.50;99.90
44117;DHT22;29781;49.480;8.512;2023-07-31T06:56:15;19.50;99.90
44117;DHT22;29781;49.480;8.512;2023-07-31T06:58:41;19.50;99.90
44117;DHT22;29781;49.480;8.512;2023-07-31T07:01:06;19.50;99.90
44117;DHT22;29781;49.480;8.512;2023-07-31T07:03:32;19.50;99.90
44117;DHT22;29781;49.480;8.512;2023-07-31T07:05:58;19.60;99.90
44117;DHT22;29781;49.480;8.512;2023-07-31T07:08:24;19.70;99.90
44117;DHT22;29781;49.480;8.512;2023-07-31T07:10:49;19.70;99.90
44117;DHT22;29781;49.480;8.512;2023-07-31T07:13:15;19.60;99.90
44117;DHT22;29781;49.480;8.512;2023-07-31T07:15:41;19.70;99.90
44117;DHT22;29781;49.480;8.512;2023-07-31T07:18:06;19.80;99.90
44117;DHT22;29781;49.480;8.512;2023-07-31T07:20:32;19.80;99.90
44117;DHT22;29781;49.480;8.512;2023-07-31T07:22:58;19.90;99.90
44117;DHT22;29781;49.480;8.512;2023-07-31T07:25:23;20.00;99.90
44117;DHT22;29781;49.480;8.512;2023-07-31T07:27:49;20.10;99.90
44117;DHT22;29781;49.480;8.512;2023-07-31T07:30:14;20.20;99.90
44117;DHT22;29781;49.480;8.512;2023-07-31T07:32:40;20.20;99.90
44117;DHT22;29781;49.480;8.512;2023-07-31T07:35:06;20.30;99.90
44117;DHT22;29781;49.480;8.512;2023-07-31T07:37:32;20.20;99.90
44117;DHT22;29781;49.480;8.512;2023-07-31T07:39:57;20.20;99.90
44117;DHT22;29781;49.480;8.512;2023-07-31T07:42:23;20.30;99.90
44117;DHT22;29781;49.480;8.512;2023-07-31T07:44:49;20.30;99.90
44117;DHT22;29781;49.480;8.512;2023-07-31T07:47:14;20.30;99.90
44117;DHT22;29781;49.480;8.512;2023-07-31T07:49:41;20.30;99.90
44117;DHT22;29781;49.480;8.512;2023-07-31T07:52:06;20.60;99.90
44117;DHT22;29781;49.480;8.512;2023-07-31T07:54:32;20.80;99.90
44117;DHT22;29781;49.480;8.512;2023-07-31T07:56:57;20.80;99.90
44117;DHT22;29781;49.480;8.512;2023-07-31T07:59:24;20.90;99.90
44117;DHT22;29781;49.480;8.512;2023-07-31T08:01:49;20.90;99.90
44117;DHT22;29781;49.480;8.512;2023-07-31T08:04:15;20.90;99.90
44117;DHT22;29781;49.480;8.512;2023-07-31T08:06:40;21.00;99.90
44117;DHT22;29781;49.480;8.512;2023-07-31T08:09:06;21.00;99.90
44117;DHT22;29781;49.480;8.512;2023-07-31T08:11:35;21.00;99.90
44117;DHT22;29781;49.480;8.512;2023-07-31T08:14:00;21.10;99.90
44117;DHT22;29781;49.480;8.512;2023-07-31T08:16:26;21.10;99.90
44117;DHT22;29781;49.480;8.512;2023-07-31T08:18:51;21.20;99.90
44117;DHT22;29781;49.480;8.512;2023-07-31T08:21:17;21.20;99.90
44117;DHT22;29781;49.480;8.512;2023-07-31T08:23:42;21.20;99.90
44117;DHT22;29781;49.480;8.512;2023-07-31T08:26:08;21.30;99.90
44117;DHT22;29781;49.480;8.512;2023-07-31T08:28:39;21.40;99.90
44117;DHT22;29781;49.480;8.512;2023-07-31T08:31:05;21.30;99.90
44117;DHT22;29781;49.480;8.512;2023-07-31T08:33:31;21.20;99.90
44117;DHT22;29781;49.480;8.512;2023-07-31T08:35:56;21.20;99.90
44117;DHT22;29781;49.480;8.512;2023-07-31T08:38:22;21.50;99.90
44117;DHT22;29781;49.480;8.512;2023-07-31T08:40:50;21.70;99.90
44117;DHT22;29781;49.480;8.512;2023-07-31T08:43:16;21.90;99.90
44117;DHT22;29781;49.480;8.512;2023-07-31T08:45:42;22.20;99.90
44117;DHT22;29781;49.480;8.512;2023-07-31T08:48:08;22.70;99.90
44117;DHT22;29781;49.480;8.512;2023-07-31T08:50:33;22.80;99.90
44117;DHT22;29781;49.480;8.512;2023-07-31T08:53:00;22.80;99.90
44117;DHT22;29781;49.480;8.512;2023-07-31T08:55:26;22.50;99.90
44117;DHT22;29781;49.480;8.512;2023-07-31T08:57:53;22.20;99.90
44117;DHT22;29781;49.480;8.512;2023-07-31T09:00:20;22.10;99.90
44117;DHT22;29781;49.480;8.512;2023-07-31T09:03:13;21.70;99.90
44117;DHT22;29781;49.480;8.512;2023-07-31T09:05:42;21.50;99.90
44117;DHT22;29781;49.480;8.512;2023-07-31T09:08:09;21.40;99.90
44117;DHT22;29781;49.480;8.512;2023-07-31T09:10:35;21.40;99.90
44117;DHT22;29781;49.480;8.512;2023-07-31T09:13:06;21.40;99.90
44117;DHT22;29781;49.480;8.512;2023-07-31T09:15:31;21.40;99.90
44117;DHT22;29781;49.480;8.512;2023-07-31T09:18:01;21.50;99.90
44117;DHT22;29781;49.480;8.512;2023-07-31T09:20:27;21.60;99.90
44117;DHT22;29781;49.480;8.512;2023-07-31T09:22:53;21.70;99.90
44117;DHT22;29781;49.480;8.512;2023-07-31T09:25:19;22.00;99.90
44117;DHT22;29781;49.480;8.512;2023-07-31T09:30:20;22.00;99.90
44117;DHT22;29781;49.480;8.512;2023-07-31T09:32:46;22.10;99.90
44117;DHT22;29781;49.480;8.512;2023-07-31T09:35:20;22.00;99.90
44117;DHT22;29781;49.480;8.512;2023-07-31T09:37:50;22.50;99.90
44117;DHT22;29781;49.480;8.512;2023-07-31T09:40:46;23.20;99.90
44117;DHT22;29781;49.480;8.512;2023-07-31T09:43:16;23.60;99.90
44117;DHT22;29781;49.480;8.512;2023-07-31T09:45:55;23.80;99.90
44117;DHT22;29781;49.480;8.512;2023-07-31T09:48:23;24.30;99.90
44117;DHT22;29781;49.480;8.512;2023-07-31T09:50:51;24.30;99.90
44117;DHT22;29781;49.480;8.512;2023-07-31T09:53:17;24.50;99.90
44117;DHT22;29781;49.480;8.512;2023-07-31T09:55:42;24.30;99.90
44117;DHT22;29781;49.480;8.512;2023-07-31T09:58:10;24.00;99.90
44117;DHT22;29781;49.480;8.512;2023-07-31T10:00:36;23.50;99.90
44117;DHT22;29781;49.480;8.512;2023-07-31T10:03:10;23.00;99.90
44117;DHT22;29781;49.480;8.512;2023-07-31T10:05:38;22.80;99.90
44117;DHT22;29781;49.480;8.512;2023-07-31T10:08:06;22.70;99.90
44117;DHT22;29781;49.480;8.512;2023-07-31T10:10:33;22.50;99.90
44117;DHT22;29781;49.480;8.512;2023-07-31T10:13:00;22.40;99.90
44117;DHT22;29781;49.480;8.512;2023-07-31T10:15:27;22.20;99.90
44117;DHT22;29781;49.480;8.512;2023-07-31T10:17:54;22.30;99.90
44117;DHT22;29781;49.480;8.512;2023-07-31T10:20:20;22.30;99.90
44117;DHT22;29781;49.480;8.512;2023-07-31T10:22:46;22.30;99.90
44117;DHT22;29781;49.480;8.512;2023-07-31T10:25:12;22.60;99.90
44117;DHT22;29781;49.480;8.512;2023-07-31T10:27:41;22.60;99.90
44117;DHT22;29781;49.480;8.512;2023-07-31T10:30:10;22.60;99.90
44117;DHT22;29781;49.480;8.512;2023-07-31T10:32:38;22.60;99.90
44117;DHT22;29781;49.480;8.512;2023-07-31T10:35:04;22.70;99.90
44117;DHT22;29781;49.480;8.512;2023-07-31T10:37:37;22.80;99.90
44117;DHT22;29781;49.480;8.512;2023-07-31T10:40:25;22.80;99.90
44117;DHT22;29781;49.480;8.512;2023-07-31T10:42:57;22.90;99.90
44117;DHT22;29781;49.480;8.512;2023-07-31T10:45:25;22.90;99.90
44117;DHT22;29781;49.480;8.512;2023-07-31T10:48:01;22.90;99.90
44117;DHT22;29781;49.480;8.512;2023-07-31T10:50:29;23.00;99.90
44117;DHT22;29781;49.480;8.512;2023-07-31T10:52:56;23.00;99.90
44117;DHT22;29781;49.480;8.512;2023-07-31T10:55:41;22.90;99.90
44117;DHT22;29781;49.480;8.512;2023-07-31T10:58:12;22.80;99.90
44117;DHT22;29781;49.480;8.512;2023-07-31T11:00:39;22.90;99.90
44117;DHT22;29781;49.480;8.512;2023-07-31T11:03:06;23.00;99.90
44117;DHT22;29781;49.480;8.512;2023-07-31T11:05:52;22.90;99.90
44117;DHT22;29781;49.480;8.512;2023-07-31T11:10:50;22.90;99.90
44117;DHT22;29781;49.480;8.512;2023-07-31T11:13:16;22.80;99.90
44117;DHT22;29781;49.480;8.512;2023-07-31T11:15:42;22.80;99.90
44117;DHT22;29781;49.480;8.512;2023-07-31T11:18:07;22.80;99.90
44117;DHT22;29781;49.480;8.512;2023-07-31T11:20:36;22.90;99.90
44117;DHT22;29781;49.480;8.512;2023-07-31T11:23:04;22.90;99.90
44117;DHT22;29781;49.480;8.512;2023-07-31T11:25:31;22.90;99.90
44117;DHT22;29781;49.480;8.512;2023-07-31T11:27:58;22.90;99.90
44117;DHT22;29781;49.480;8.512;2023-07-31T11:30:28;22.90;99.90
44117;DHT22;29781;49.480;8.512;2023-07-31T11:32:55;23.00;99.90
44117;DHT22;29781;49.480;8.512;2023-07-31T11:35:21;22.90;99.90
44117;DHT22;29781;49.480;8.512;2023-07-31T11:37:47;22.70;99.90
44117;DHT22;29781;49.480;8.512;2023-07-31T11:40:14;22.60;99.90
44117;DHT22;29781;49.480;8.512;2023-07-31T11:42:40;22.60;99.90
44117;DHT22;29781;49.480;8.512;2023-07-31T11:45:07;22.50;99.90
44117;DHT22;29781;49.480;8.512;2023-07-31T11:47:34;22.40;99.90
44117;DHT22;29781;49.480;8.512;2023-07-31T11:50:01;22.60;99.90
44117;DHT22;29781;49.480;8.512;2023-07-31T11:52:34;22.50;99.90
44117;DHT22;29781;49.480;8.512;2023-07-31T11:55:02;22.60;99.90
44117;DHT22;29781;49.480;8.512;2023-07-31T11:57:28;22.60;99.90
44117;DHT22;29781;49.480;8.512;2023-07-31T11:59:55;22.60;99.90
44117;DHT22;29781;49.480;8.512;2023-07-31T12:02:21;22.50;99.90
44117;DHT22;29781;49.480;8.512;2023-07-31T12:04:47;22.50;99.90
44117;DHT22;29781;49.480;8.512;2023-07-31T12:07:13;22.60;99.90
44117;DHT22;29781;49.480;8.512;2023-07-31T12:09:50;22.60;99.90
44117;DHT22;29781;49.480;8.512;2023-07-31T12:12:20;22.60;99.90
44117;DHT22;29781;49.480;8.512;2023-07-31T12:14:46;22.70;99.90
44117;DHT22;29781;49.480;8.512;2023-07-31T12:17:11;22.70;99.90
44117;DHT22;29781;49.480;8.512;2023-07-31T12:19:37;22.80;99.90
44117;DHT22;29781;49.480;8.512;2023-07-31T12:22:11;22.80;99.90
44117;DHT22;29781;49.480;8.512;2023-07-31T12:24:37;22.80;99.90
44117;DHT22;29781;49.480;8.512;2023-07-31T12:27:14;22.80;99.90
44117;DHT22;29781;49.480;8.512;2023-07-31T12:29:42;22.70;99.90
44117;DHT22;29781;49.480;8.512;2023-07-31T12:32:21;22.70;99.90
44117;DHT22;29781;49.480;8.512;2023-07-31T12:34:47;22.70;99.90
44117;DHT22;29781;49.480;8.512;2023-07-31T12:37:12;22.70;99.90
44117;DHT22;29781;49.480;8.512;2023-07-31T12:39:38;22.70;99.90
44117;DHT22;29781;49.480;8.512;2023-07-31T12:42:04;22.70;99.90
44117;DHT22;29781;49.480;8.512;2023-07-31T12:44:29;22.70;99.90
44117;DHT22;29781;49.480;8.512;2023-07-31T12:46:55;22.80;99.90
44117;DHT22;29781;49.480;8.512;2023-07-31T12:49:20;22.90;99.90
44117;DHT22;29781;49.480;8.512;2023-07-31T12:51:46;22.90;99.90
44117;DHT22;29781;49.480;8.512;2023-07-31T12:54:12;22.90;99.90
44117;DHT22;29781;49.480;8.512;2023-07-31T12:56:37;22.90;99.90
44117;DHT22;29781;49.480;8.512;2023-07-31T12:59:03;23.00;99.90
44117;DHT22;29781;49.480;8.512;2023-07-31T13:01:28;23.10;99.90
44117;DHT22;29781;49.480;8.512;2023-07-31T13:03:54;23.20;99.90
44117;DHT22;29781;49.480;8.512;2023-07-31T13:06:20;23.30;99.90
44117;DHT22;29781;49.480;8.512;2023-07-31T13:08:45;23.50;99.90
44117;DHT22;29781;49.480;8.512;2023-07-31T13:11:11;23.40;99.90
44117;DHT22;29781;49.480;8.512;2023-07-31T13:13:36;23.50;99.90
44117;DHT22;29781;49.480;8.512;2023-07-31T13:16:02;23.60;99.90
44117;DHT22;29781;49.480;8.512;2023-07-31T13:18:27;23.50;99.90
44117;DHT22;29781;49.480;8.512;2023-07-31T13:20:53;23.60;99.90
44117;DHT22;29781;49.480;8.512;2023-07-31T13:23:18;23.50;99.90
44117;DHT22;29781;49.480;8.512;2023-07-31T13:25:44;23.40;99.90
44117;DHT22;29781;49.480;8.512;2023-07-31T13:28:10;23.40;99.90
44117;DHT22;29781;49.480;8.512;2023-07-31T13:30:35;23.30;99.90
44117;DHT22;29781;49.480;8.512;2023-07-31T13:33:01;23.30;99.90
44117;DHT22;29781;49.480;8.512;2023-07-31T13:35:26;23.30;99.90
44117;DHT22;29781;49.480;8.512;2023-07-31T13:37:52;23.40;99.90
44117;DHT22;29781;49.480;8.512;2023-07-31T13:40:17;23.40;99.90
44117;DHT22;29781;49.480;8.512;2023-07-31T13:42:43;23.40;99.90
44117;DHT22;29781;49.480;8.512;2023-07-31T13:45:08;23.40;99.90
44117;DHT22;29781;49.480;8.512;2023-07-31T13:47:34;23.40;99.90
44117;DHT22;29781;49.480;8.512;2023-07-31T13:49:59;23.30;99.90
44117;DHT22;29781;49.480;8.512;2023-07-31T13:52:25;23.20;99.90
44117;DHT22;29781;49.480;8.512;2023-07-31T13:54:50;23.20;99.90
44117;DHT22;29781;49.480;8.512;2023-07-31T13:57:16;23.20;99.90
44117;DHT22;29781;49.480;8.512;2023-07-31T13:59:42;23.20;99.90
44117;DHT22;29781;49.480;8.512;2023-07-31T14:02:07;23.20;99.90
44117;DHT22;29781;49.480;8.512;2023-07-31T14:04:33;23.20;99.90
44117;DHT22;29781;49.480;8.512;2023-07-31T14:06:59;23.30;99.90
44117;DHT22;29781;49.480;8.512;2023-07-31T14:09:24;23.30;99.90
44117;DHT22;29781;49.480;8.512;2023-07-31T14:11:50;23.30;99.90
44117;DHT22;29781;49.480;8.512;2023-07-31T14:14:16;23.20;99.90
44117;DHT22;29781;49.480;8.512;2023-07-31T14:16:43;23.20;99.90
44117;DHT22;29781;49.480;8.512;2023-07-31T14:19:08;23.20;99.90
44117;DHT22;29781;49.480;8.512;2023-07-31T14:21:34;23.10;99.90
44117;DHT22;29781;49.480;8.512;2023-07-31T14:24:00;23.00;99.90
44117;DHT22;29781;49.480;8.512;2023-07-31T14:26:26;23.10;99.90
44117;DHT22;29781;49.480;8.512;2023-07-31T14:28:51;23.10;99.90
44117;DHT22;29781;49.480;8.512;2023-07-31T14:31:17;23.00;99.90
44117;DHT22;29781;49.480;8.512;2023-07-31T14:33:42;23.10;99.90
44117;DHT22;29781;49.480;8.512;2023-07-31T14:36:08;23.10;99.90
44117;DHT22;29781;49.480;8.512;2023-07-31T14:38:33;23.10;99.90
44117;DHT22;29781;49.480;8.512;2023-07-31T14:40:59;23.20;99.90
44117;DHT22;29781;49.480;8.512;2023-07-31T14:43:24;23.20;99.90
44117;DHT22;29781;49.480;8.512;2023-07-31T14:45:50;23.20;99.90
44117;DHT22;29781;49.480;8.512;2023-07-31T14:48:16;23.30;99.90
44117;DHT22;29781;49.480;8.512;2023-07-31T14:50:42;23.20;99.90
44117;DHT22;29781;49.480;8.512;2023-07-31T14:53:08;23.20;99.90
44117;DHT22;29781;49.480;8.512;2023-07-31T14:55:33;23.10;99.90
44117;DHT22;29781;49.480;8.512;2023-07-31T14:57:59;23.10;99.90
44117;DHT22;29781;49.480;8.512;2023-07-31T15:00:24;23.10;99.90
44117;DHT22;29781;49.480;8.512;2023-07-31T15:02:51;23.10;99.90
44117;DHT22;29781;49.480;8.512;2023-07-31T15:05:17;23.20;99.90
44117;DHT22;29781;49.480;8.512;2023-07-31T15:07:42;23.30;99.90
44117;DHT22;29781;49.480;8.512;2023-07-31T15:10:08;23.30;99.90
44117;DHT22;29781;49.480;8.512;2023-07-31T15:12:34;23.20;99.90
44117;DHT22;29781;49.480;8.512;2023-07-31T15:14:59;23.30;99.90
44117;DHT22;29781;49.480;8.512;2023-07-31T15:17:25;23.40;99.90
44117;DHT22;29781;49.480;8.512;2023-07-31T15:19:50;23.40;99.90
44117;DHT22;29781;49.480;8.512;2023-07-31T15:22:16;23.40;99.90
44117;DHT22;29781;49.480;8.512;2023-07-31T15:24:41;23.40;99.90
44117;DHT22;29781;49.480;8.512;2023-07-31T15:27:07;23.30;99.90
44117;DHT22;29781;49.480;8.512;2023-07-31T15:29:33;23.30;99.90
44117;DHT22;29781;49.480;8.512;2023-07-31T15:32:03;23.30;99.90
44117;DHT22;29781;49.480;8.512;2023-07-31T15:34:29;23.30;99.90
44117;DHT22;29781;49.480;8.512;2023-07-31T15:36:54;23.20;99.90